createdAt,value
2018-08-22T00:00:38.048Z,99.74
2018-08-22T00:01:38.061Z,98.68
2018-08-22T00:02:37.949Z,98.87
2018-08-22T00:03:37.902Z,98.19
2018-08-22T00:04:37.857Z,99.99
2018-08-22T00:05:37.825Z,99.93
2018-08-22T00:06:37.789Z,98.77
2018-08-22T00:07:37.718Z,99.93
2018-08-22T00:08:37.672Z,99.74
2018-08-22T00:09:37.626Z,99.54
2018-08-22T00:10:37.578Z,99.99
2018-08-22T00:11:37.566Z,99.99
2018-08-22T00:12:37.489Z,99.99
2018-08-22T00:13:37.447Z,99.99
2018-08-22T00:14:37.393Z,99.99
2018-08-22T00:15:37.344Z,99.99
2018-08-22T00:16:37.343Z,99.99
2018-08-22T00:17:37.253Z,99.93
2018-08-22T00:18:37.210Z,99.84
2018-08-22T00:19:37.167Z,99.59
2018-08-22T00:20:37.115Z,99.99
2018-08-22T00:21:37.070Z,99.64
2018-08-22T00:22:37.121Z,99.40
2018-08-22T00:23:36.987Z,99.93
2018-08-22T00:24:36.935Z,99.99
2018-08-22T00:25:36.889Z,99.99
2018-08-22T00:26:36.845Z,99.99
2018-08-22T00:27:36.818Z,99.99
2018-08-22T00:28:36.752Z,99.99
2018-08-22T00:29:36.702Z,99.99
2018-08-22T00:30:36.656Z,99.99
2018-08-22T00:31:36.610Z,99.99
2018-08-22T00:32:36.600Z,99.99
2018-08-22T00:33:36.513Z,99.99
2018-08-22T00:34:36.469Z,99.99
2018-08-22T00:35:36.423Z,99.99
2018-08-22T00:36:36.387Z,99.99
2018-08-22T00:37:36.364Z,99.99
2018-08-22T00:38:36.292Z,99.99
2018-08-22T00:39:36.245Z,99.99
2018-08-22T00:40:36.196Z,99.99
2018-08-22T00:41:36.145Z,99.99
2018-08-22T00:42:36.126Z,99.99
2018-08-22T00:43:36.056Z,99.99
2018-08-22T00:44:36.004Z,99.99
2018-08-22T00:45:35.961Z,99.99
2018-08-22T00:46:35.914Z,99.99
2018-08-22T00:47:35.901Z,99.99
2018-08-22T00:48:35.823Z,99.99
2018-08-22T00:49:35.779Z,99.99
2018-08-22T00:50:35.736Z,99.99
2018-08-22T00:51:35.692Z,99.99
2018-08-22T00:52:35.664Z,99.99
2018-08-22T00:53:35.592Z,99.99
2018-08-22T00:54:35.548Z,99.99
2018-08-22T00:55:35.500Z,99.99
2018-08-22T00:56:35.450Z,99.99
2018-08-22T00:57:35.430Z,99.99
2018-08-22T00:58:35.356Z,99.99
2018-08-22T00:59:35.311Z,99.99
2018-08-22T01:00:35.270Z,99.99
2018-08-22T01:01:35.219Z,99.99
2018-08-22T01:02:35.239Z,99.99
2018-08-22T01:03:35.134Z,99.99
2018-08-22T01:04:35.083Z,99.99
2018-08-22T01:05:35.036Z,99.99
2018-08-22T01:06:34.996Z,99.99
2018-08-22T01:07:34.973Z,99.99
2018-08-22T01:08:34.903Z,99.99
2018-08-22T01:09:34.860Z,99.99
2018-08-22T01:10:34.809Z,99.99
2018-08-22T01:11:34.769Z,99.99
2018-08-22T01:12:34.739Z,99.99
2018-08-22T01:13:34.669Z,99.99
2018-08-22T01:14:34.624Z,99.99
2018-08-22T01:15:34.581Z,99.99
2018-08-22T01:16:34.532Z,99.99
2018-08-22T01:17:34.507Z,99.99
2018-08-22T01:18:34.442Z,99.99
2018-08-22T01:19:34.395Z,99.99
2018-08-22T01:20:34.351Z,99.99
2018-08-22T01:21:34.299Z,99.99
2018-08-22T01:22:34.280Z,99.99
2018-08-22T01:23:34.207Z,99.99
2018-08-22T01:24:34.160Z,99.99
2018-08-22T01:25:34.113Z,99.99
2018-08-22T01:26:34.071Z,99.99
2018-08-22T01:27:34.049Z,99.99
2018-08-22T01:28:33.982Z,99.99
2018-08-22T01:29:33.930Z,99.99
2018-08-22T01:30:33.899Z,99.99
2018-08-22T01:31:33.833Z,99.99
2018-08-22T01:32:33.819Z,99.99
2018-08-22T01:33:33.740Z,99.99
2018-08-22T01:34:33.701Z,99.99
2018-08-22T01:35:33.652Z,99.99
2018-08-22T01:36:33.608Z,99.99
2018-08-22T01:37:33.582Z,99.99
2018-08-22T01:38:33.514Z,99.99
2018-08-22T01:39:33.472Z,99.99
2018-08-22T01:40:33.428Z,99.99
2018-08-22T01:41:33.380Z,99.99
2018-08-22T01:42:33.367Z,99.99
2018-08-22T01:43:33.287Z,99.99
2018-08-22T01:44:33.242Z,99.99
2018-08-22T01:45:33.192Z,99.99
2018-08-22T01:46:33.146Z,99.99
2018-08-22T01:47:33.095Z,99.99
2018-08-22T01:48:33.084Z,99.99
2018-08-22T01:49:33.006Z,99.99
2018-08-22T01:50:32.959Z,99.99
2018-08-22T01:51:32.912Z,99.99
2018-08-22T01:52:32.865Z,99.99
2018-08-22T01:53:32.848Z,99.99
2018-08-22T01:54:32.779Z,99.99
2018-08-22T01:55:32.732Z,99.99
2018-08-22T01:56:32.681Z,99.99
2018-08-22T01:57:32.641Z,99.99
2018-08-22T01:58:32.635Z,98.82
2018-08-22T01:59:32.548Z,99.99
2018-08-22T02:00:32.510Z,99.99
2018-08-22T02:01:32.456Z,99.99
2018-08-22T02:02:32.413Z,98.82
2018-08-22T02:03:32.387Z,97.96
2018-08-22T02:04:32.322Z,97.09
2018-08-22T02:05:32.272Z,96.89
2018-08-22T02:06:32.220Z,97.76
2018-08-22T02:07:32.177Z,98.34
2018-08-22T02:08:32.159Z,97.09
2018-08-22T02:09:32.083Z,96.99
2018-08-22T02:10:32.040Z,96.61
2018-08-22T02:11:31.993Z,96.51
2018-08-22T02:12:31.948Z,97.28
2018-08-22T02:13:31.933Z,96.42
2018-08-22T02:14:31.858Z,97.96
2018-08-22T02:15:31.814Z,98.82
2018-08-22T02:16:31.770Z,98.72
2018-08-22T02:17:31.719Z,98.54
2018-08-22T02:18:31.698Z,97.28
2018-08-22T02:19:31.659Z,95.84
2018-08-22T02:20:31.583Z,96.51
2018-08-22T02:21:31.567Z,97.57
2018-08-22T02:22:31.492Z,96.99
2018-08-22T02:23:31.471Z,96.70
2018-08-22T02:24:31.398Z,96.22
2018-08-22T02:25:31.351Z,96.42
2018-08-22T02:26:31.309Z,96.99
2018-08-22T02:27:31.259Z,96.56
2018-08-22T02:28:31.237Z,96.51
2018-08-22T02:29:31.174Z,97.19
2018-08-22T02:30:31.123Z,97.67
2018-08-22T02:31:31.080Z,95.40
2018-08-22T02:32:31.031Z,94.49
2018-08-22T02:33:31.011Z,94.06
2018-08-22T02:34:30.941Z,95.69
2018-08-22T02:35:30.898Z,96.51
2018-08-22T02:36:30.845Z,94.97
2018-08-22T02:37:30.802Z,94.44
2018-08-22T02:38:30.780Z,96.37
2018-08-22T02:39:30.718Z,97.28
2018-08-22T02:40:30.679Z,98.77
2018-08-22T02:41:30.621Z,97.91
2018-08-22T02:42:30.579Z,97.04
2018-08-22T02:43:30.557Z,95.21
2018-08-22T02:44:30.491Z,96.08
2018-08-22T02:45:30.449Z,96.75
2018-08-22T02:46:30.391Z,97.72
2018-08-22T02:47:30.346Z,97.47
2018-08-22T02:48:30.319Z,97.47
2018-08-22T02:49:30.260Z,96.27
2018-08-22T02:50:30.216Z,95.89
2018-08-22T02:51:30.169Z,94.34
2018-08-22T02:52:30.117Z,93.28
2018-08-22T02:53:30.112Z,93.48
2018-08-22T02:54:30.026Z,93.19
2018-08-22T02:55:29.979Z,93.48
2018-08-22T02:56:29.933Z,92.51
2018-08-22T02:57:29.889Z,92.32
2018-08-22T02:58:29.844Z,93.57
2018-08-22T02:59:29.822Z,93.09
2018-08-22T03:00:29.748Z,92.51
2018-08-22T03:01:29.704Z,92.90
2018-08-22T03:02:29.659Z,91.93
2018-08-22T03:03:29.613Z,93.96
2018-08-22T03:04:29.594Z,94.34
2018-08-22T03:05:29.521Z,93.76
2018-08-22T03:06:29.481Z,92.41
2018-08-22T03:07:29.434Z,93.19
2018-08-22T03:08:29.392Z,94.73
2018-08-22T03:09:29.369Z,94.73
2018-08-22T03:10:29.293Z,92.80
2018-08-22T03:11:29.248Z,93.57
2018-08-22T03:12:29.202Z,93.48
2018-08-22T03:13:29.158Z,92.61
2018-08-22T03:14:29.140Z,93.76
2018-08-22T03:15:29.067Z,92.41
2018-08-22T03:16:29.028Z,92.90
2018-08-22T03:17:28.976Z,92.41
2018-08-22T03:18:28.929Z,92.41
2018-08-22T03:19:28.904Z,93.76
2018-08-22T03:20:28.842Z,92.80
2018-08-22T03:21:28.794Z,92.13
2018-08-22T03:22:28.749Z,91.83
2018-08-22T03:23:28.702Z,92.22
2018-08-22T03:24:28.685Z,91.74
2018-08-22T03:25:28.615Z,91.36
2018-08-22T03:26:28.561Z,92.13
2018-08-22T03:27:28.531Z,92.80
2018-08-22T03:28:28.484Z,92.22
2018-08-22T03:29:28.448Z,92.13
2018-08-22T03:30:28.384Z,92.71
2018-08-22T03:31:28.346Z,94.73
2018-08-22T03:32:28.292Z,94.34
2018-08-22T03:33:28.245Z,93.96
2018-08-22T03:34:28.223Z,93.76
2018-08-22T03:35:28.154Z,94.82
2018-08-22T03:36:28.118Z,96.37
2018-08-22T03:37:28.064Z,95.40
2018-08-22T03:38:28.025Z,95.79
2018-08-22T03:39:27.999Z,96.46
2018-08-22T03:40:27.927Z,94.34
2018-08-22T03:41:27.885Z,93.09
2018-08-22T03:42:27.841Z,92.99
2018-08-22T03:43:27.796Z,93.19
2018-08-22T03:44:27.781Z,93.09
2018-08-22T03:45:27.703Z,93.09
2018-08-22T03:46:27.656Z,92.80
2018-08-22T03:47:27.606Z,93.09
2018-08-22T03:48:27.562Z,93.09
2018-08-22T03:49:27.545Z,92.99
2018-08-22T03:50:27.479Z,92.51
2018-08-22T03:51:27.421Z,92.80
2018-08-22T03:52:27.387Z,92.71
2018-08-22T03:53:27.333Z,93.19
2018-08-22T03:54:27.315Z,94.34
2018-08-22T03:55:27.243Z,95.31
2018-08-22T03:56:27.200Z,95.40
2018-08-22T03:57:27.155Z,95.50
2018-08-22T03:58:27.116Z,97.42
2018-08-22T03:59:27.093Z,96.56
2018-08-22T04:00:27.017Z,95.89
2018-08-22T04:01:26.986Z,95.69
2018-08-22T04:02:26.926Z,94.63
2018-08-22T04:03:26.882Z,94.15
2018-08-22T04:04:26.859Z,94.73
2018-08-22T04:05:26.788Z,95.50
2018-08-22T04:06:26.742Z,96.46
2018-08-22T04:07:26.697Z,96.37
2018-08-22T04:08:26.657Z,95.89
2018-08-22T04:09:26.627Z,94.92
2018-08-22T04:10:26.561Z,94.73
2018-08-22T04:11:26.518Z,95.21
2018-08-22T04:12:26.472Z,95.31
2018-08-22T04:13:26.423Z,94.73
2018-08-22T04:14:26.402Z,97.91
2018-08-22T04:15:26.331Z,98.20
2018-08-22T04:16:26.291Z,98.87
2018-08-22T04:17:26.241Z,97.42
2018-08-22T04:18:26.197Z,96.46
2018-08-22T04:19:26.153Z,96.37
2018-08-22T04:20:26.131Z,95.59
2018-08-22T04:21:26.104Z,95.50
2018-08-22T04:22:26.018Z,95.31
2018-08-22T04:23:25.965Z,97.72
2018-08-22T04:24:25.921Z,97.91
2018-08-22T04:25:25.899Z,98.20
2018-08-22T04:26:25.826Z,97.91
2018-08-22T04:27:25.793Z,97.24
2018-08-22T04:28:25.737Z,96.37
2018-08-22T04:29:25.694Z,97.24
2018-08-22T04:30:25.671Z,97.52
2018-08-22T04:31:25.603Z,97.72
2018-08-22T04:32:25.561Z,97.14
2018-08-22T04:33:25.527Z,97.91
2018-08-22T04:34:25.467Z,98.58
2018-08-22T04:35:25.448Z,99.74
2018-08-22T04:36:25.382Z,99.35
2018-08-22T04:37:25.333Z,98.49
2018-08-22T04:38:25.284Z,97.91
2018-08-22T04:39:25.244Z,96.94
2018-08-22T04:40:25.238Z,99.07
2018-08-22T04:41:25.144Z,99.99
2018-08-22T04:42:25.107Z,98.68
2018-08-22T04:43:25.052Z,98.29
2018-08-22T04:44:25.006Z,98.87
2018-08-22T04:45:24.987Z,99.99
2018-08-22T04:46:24.921Z,99.99
2018-08-22T04:47:24.872Z,99.99
2018-08-22T04:48:24.830Z,98.97
2018-08-22T04:49:24.790Z,98.87
2018-08-22T04:50:24.761Z,98.20
2018-08-22T04:51:24.693Z,98.10
2018-08-22T04:52:24.641Z,98.68
2018-08-22T04:53:24.599Z,99.45
2018-08-22T04:54:24.559Z,99.93
2018-08-22T04:55:24.533Z,97.81
2018-08-22T04:56:24.462Z,99.93
2018-08-22T04:57:24.411Z,99.99
2018-08-22T04:58:24.374Z,99.99
2018-08-22T04:59:24.318Z,99.99
2018-08-22T05:00:24.300Z,99.99
2018-08-22T05:01:24.229Z,99.99
2018-08-22T05:02:24.187Z,99.99
2018-08-22T05:03:24.140Z,99.99
2018-08-22T05:04:24.095Z,99.99
2018-08-22T05:05:24.078Z,99.99
2018-08-22T05:06:24.013Z,99.99
2018-08-22T05:07:23.957Z,99.99
2018-08-22T05:08:23.917Z,99.99
2018-08-22T05:09:23.865Z,99.99
2018-08-22T05:10:23.853Z,99.99
2018-08-22T05:11:23.774Z,99.99
2018-08-22T05:12:23.731Z,99.99
2018-08-22T05:13:23.691Z,99.99
2018-08-22T05:14:23.650Z,99.99
2018-08-22T05:15:23.612Z,99.93
2018-08-22T05:16:23.547Z,99.99
2018-08-22T05:17:23.496Z,99.99
2018-08-22T05:18:23.453Z,99.99
2018-08-22T05:19:23.406Z,99.99
2018-08-22T05:20:23.403Z,99.99
2018-08-22T05:21:23.323Z,99.99
2018-08-22T05:22:23.270Z,99.99
2018-08-22T05:23:23.227Z,99.55
2018-08-22T05:24:23.180Z,99.99
2018-08-22T05:25:23.182Z,99.45
2018-08-22T05:26:23.090Z,99.16
2018-08-22T05:27:23.044Z,99.99
2018-08-22T05:28:22.996Z,99.93
2018-08-22T05:29:22.951Z,99.55
2018-08-22T05:30:22.901Z,98.77
2018-08-22T05:31:22.903Z,98.77
2018-08-22T05:32:22.811Z,98.77
2018-08-22T05:33:22.768Z,98.58
2018-08-22T05:34:22.724Z,98.68
2018-08-22T05:35:22.677Z,99.16
2018-08-22T05:36:22.653Z,98.49
2018-08-22T05:37:22.582Z,98.10
2018-08-22T05:38:22.543Z,98.10
2018-08-22T05:39:22.494Z,98.10
2018-08-22T05:40:22.453Z,98.00
2018-08-22T05:41:22.430Z,98.10
2018-08-22T05:42:22.358Z,98.58
2018-08-22T05:43:22.315Z,98.68
2018-08-22T05:44:22.262Z,98.49
2018-08-22T05:45:22.228Z,98.58
2018-08-22T05:46:22.209Z,97.86
2018-08-22T05:47:22.151Z,97.52
2018-08-22T05:48:22.083Z,98.54
2018-08-22T05:49:22.042Z,99.02
2018-08-22T05:50:21.995Z,99.99
2018-08-22T05:51:21.974Z,99.99
2018-08-22T05:52:21.910Z,99.69
2018-08-22T05:53:21.852Z,99.99
2018-08-22T05:54:21.816Z,99.99
2018-08-22T05:55:21.766Z,99.99
2018-08-22T05:56:21.747Z,99.99
2018-08-22T05:57:21.672Z,99.99
2018-08-22T05:58:21.636Z,99.98
2018-08-22T05:59:21.587Z,99.99
2018-08-22T06:00:21.550Z,99.98
2018-08-22T06:01:21.520Z,99.02
2018-08-22T06:02:21.452Z,99.02
2018-08-22T06:03:21.450Z,99.99
2018-08-22T06:04:21.361Z,99.99
2018-08-22T06:05:21.318Z,99.99
2018-08-22T06:06:21.317Z,97.28
2018-08-22T06:07:21.222Z,97.81
2018-08-22T06:08:21.185Z,97.24
2018-08-22T06:09:21.127Z,96.56
2018-08-22T06:10:21.101Z,97.52
2018-08-22T06:11:21.077Z,98.05
2018-08-22T06:12:20.997Z,98.34
2018-08-22T06:13:20.965Z,97.86
2018-08-22T06:14:20.905Z,97.47
2018-08-22T06:15:20.860Z,97.96
2018-08-22T06:16:20.852Z,96.03
2018-08-22T06:17:20.774Z,96.75
2018-08-22T06:18:20.735Z,95.20
2018-08-22T06:19:20.684Z,95.40
2018-08-22T06:20:20.638Z,94.43
2018-08-22T06:21:20.624Z,93.37
2018-08-22T06:22:20.545Z,92.83
2018-08-22T06:23:20.500Z,91.87
2018-08-22T06:24:20.457Z,91.97
2018-08-22T06:25:20.418Z,90.91
2018-08-22T06:26:20.393Z,91.58
2018-08-22T06:27:20.321Z,90.61
2018-08-22T06:28:20.278Z,90.75
2018-08-22T06:29:20.238Z,90.66
2018-08-22T06:30:20.190Z,88.92
2018-08-22T06:31:20.175Z,88.92
2018-08-22T06:32:20.101Z,89.50
2018-08-22T06:33:20.067Z,88.77
2018-08-22T06:34:20.013Z,87.32
2018-08-22T06:35:19.974Z,86.74
2018-08-22T06:36:19.958Z,87.03
2018-08-22T06:37:19.876Z,85.48
2018-08-22T06:38:19.838Z,85.48
2018-08-22T06:39:19.790Z,86.25
2018-08-22T06:40:19.740Z,86.74
2018-08-22T06:41:19.751Z,86.06
2018-08-22T06:42:19.655Z,86.01
2018-08-22T06:43:19.610Z,86.59
2018-08-22T06:44:19.632Z,84.36
2018-08-22T06:45:19.523Z,83.40
2018-08-22T06:46:19.482Z,83.30
2018-08-22T06:47:19.463Z,83.01
2018-08-22T06:48:19.393Z,83.11
2018-08-22T06:49:19.346Z,83.01
2018-08-22T06:50:19.438Z,85.33
2018-08-22T06:51:19.258Z,84.11
2018-08-22T06:52:19.240Z,83.15
2018-08-22T06:53:19.172Z,82.95
2018-08-22T06:54:19.128Z,82.95
2018-08-22T06:55:19.088Z,82.76
2018-08-22T06:56:19.047Z,81.60
2018-08-22T06:57:19.029Z,79.47
2018-08-22T06:58:18.957Z,78.92
2018-08-22T06:59:18.911Z,79.37
2018-08-22T07:00:18.877Z,79.50
2018-08-22T07:01:18.821Z,78.83
2018-08-22T07:02:18.814Z,78.15
2018-08-22T07:03:18.740Z,78.44
2018-08-22T07:04:18.693Z,79.90
2018-08-22T07:05:18.649Z,79.55
2018-08-22T07:06:18.605Z,78.74
2018-08-22T07:07:18.591Z,76.83
2018-08-22T07:08:18.524Z,75.87
2018-08-22T07:09:18.487Z,77.51
2018-08-22T07:10:18.431Z,77.51
2018-08-22T07:11:18.391Z,76.83
2018-08-22T07:12:18.369Z,78.58
2018-08-22T07:13:18.309Z,77.70
2018-08-22T07:14:18.269Z,78.67
2018-08-22T07:15:18.227Z,78.77
2018-08-22T07:16:18.175Z,77.22
2018-08-22T07:17:18.156Z,78.38
2018-08-22T07:18:18.091Z,78.44
2018-08-22T07:19:18.052Z,77.19
2018-08-22T07:20:18.009Z,77.96
2018-08-22T07:21:17.968Z,78.48
2018-08-22T07:22:17.947Z,77.51
2018-08-22T07:23:17.876Z,76.25
2018-08-22T07:24:17.833Z,75.96
2018-08-22T07:25:17.785Z,75.48
2018-08-22T07:26:17.743Z,77.12
2018-08-22T07:27:17.723Z,75.87
2018-08-22T07:28:17.659Z,75.23
2018-08-22T07:29:17.618Z,75.32
2018-08-22T07:30:17.570Z,76.29
2018-08-22T07:31:17.533Z,76.74
2018-08-22T07:32:17.511Z,75.77
2018-08-22T07:33:17.442Z,76.89
2018-08-22T07:34:17.405Z,76.21
2018-08-22T07:35:17.359Z,78.41
2018-08-22T07:36:17.319Z,79.57
2018-08-22T07:37:17.331Z,79.27
2018-08-22T07:38:17.231Z,79.85
2018-08-22T07:39:17.207Z,78.94
2018-08-22T07:40:17.145Z,78.69
2018-08-22T07:41:17.103Z,79.95
2018-08-22T07:42:17.084Z,81.40
2018-08-22T07:43:17.015Z,80.34
2018-08-22T07:44:16.972Z,80.34
2018-08-22T07:45:16.929Z,79.57
2018-08-22T07:46:16.890Z,81.45
2018-08-22T07:47:16.970Z,80.09
2018-08-22T07:48:16.806Z,79.60
2018-08-22T07:49:16.772Z,78.83
2018-08-22T07:50:16.795Z,77.42
2018-08-22T07:51:16.675Z,77.03
2018-08-22T07:52:16.671Z,76.64
2018-08-22T07:53:16.612Z,76.00
2018-08-22T07:54:16.548Z,74.35
2018-08-22T07:55:16.511Z,75.81
2018-08-22T07:56:16.455Z,74.19
2018-08-22T07:57:16.445Z,74.39
2018-08-22T07:58:16.368Z,73.32
2018-08-22T07:59:16.367Z,73.03
2018-08-22T08:00:16.329Z,71.19
2018-08-22T08:01:16.251Z,72.89
2018-08-22T08:02:16.239Z,74.45
2018-08-22T08:03:16.161Z,75.81
2018-08-22T08:04:16.122Z,77.36
2018-08-22T08:05:16.075Z,76.10
2018-08-22T08:06:16.037Z,76.45
2018-08-22T08:07:16.038Z,76.87
2018-08-22T08:08:15.951Z,76.29
2018-08-22T08:09:15.908Z,75.03
2018-08-22T08:10:15.907Z,75.03
2018-08-22T08:11:15.837Z,74.87
2018-08-22T08:12:15.784Z,75.07
2018-08-22T08:13:15.785Z,71.86
2018-08-22T08:14:15.694Z,72.19
2018-08-22T08:15:15.650Z,70.35
2018-08-22T08:16:15.609Z,69.38
2018-08-22T08:17:15.647Z,70.25
2018-08-22T08:18:15.578Z,70.83
2018-08-22T08:19:15.489Z,72.97
2018-08-22T08:20:15.444Z,71.51
2018-08-22T08:21:15.401Z,72.97
2018-08-22T08:22:15.355Z,73.74
2018-08-22T08:23:15.341Z,71.22
2018-08-22T08:24:15.276Z,69.32
2018-08-22T08:25:15.238Z,69.80
2018-08-22T08:26:15.211Z,70.29
2018-08-22T08:27:15.152Z,71.74
2018-08-22T08:28:15.132Z,72.71
2018-08-22T08:29:15.064Z,71.03
2018-08-22T08:30:15.021Z,69.73
2018-08-22T08:31:14.981Z,71.28
2018-08-22T08:32:14.940Z,73.03
2018-08-22T08:33:14.922Z,74.10
2018-08-22T08:34:14.854Z,72.06
2018-08-22T08:35:14.814Z,72.83
2018-08-22T08:36:14.850Z,72.25
2018-08-22T08:37:14.726Z,70.80
2018-08-22T08:38:14.722Z,71.32
2018-08-22T08:39:14.641Z,70.83
2018-08-22T08:40:14.610Z,71.06
2018-08-22T08:41:14.564Z,69.80
2018-08-22T08:42:14.526Z,69.12
2018-08-22T08:43:14.516Z,69.12
2018-08-22T08:44:14.438Z,70.32
2018-08-22T08:45:14.393Z,70.12
2018-08-22T08:46:14.355Z,70.32
2018-08-22T08:47:14.312Z,72.07
2018-08-22T08:48:14.296Z,69.84
2018-08-22T08:49:14.229Z,71.10
2018-08-22T08:50:14.184Z,70.71
2018-08-22T08:51:14.148Z,69.60
2018-08-22T08:52:14.108Z,69.60
2018-08-22T08:53:14.090Z,69.80
2018-08-22T08:54:14.023Z,70.77
2018-08-22T08:55:13.997Z,69.67
2018-08-22T08:56:13.941Z,67.54
2018-08-22T08:57:13.906Z,68.41
2018-08-22T08:58:13.885Z,68.79
2018-08-22T08:59:13.834Z,69.67
2018-08-22T09:00:13.771Z,72.00
2018-08-22T09:01:13.727Z,70.93
2018-08-22T09:02:13.707Z,67.92
2018-08-22T09:03:13.668Z,69.38
2018-08-22T09:04:13.606Z,68.21
2018-08-22T09:05:13.570Z,69.67
2018-08-22T09:06:13.525Z,71.32
2018-08-22T09:07:13.479Z,68.02
2018-08-22T09:08:13.466Z,67.54
2018-08-22T09:09:13.394Z,69.67
2018-08-22T09:10:13.395Z,68.41
2018-08-22T09:11:13.312Z,68.31
2018-08-22T09:12:13.289Z,71.80
2018-08-22T09:13:13.251Z,68.44
2018-08-22T09:14:13.194Z,69.32
2018-08-22T09:15:13.145Z,69.32
2018-08-22T09:16:13.110Z,68.54
2018-08-22T09:17:13.112Z,70.39
2018-08-22T09:18:13.043Z,67.86
2018-08-22T09:19:12.978Z,66.11
2018-08-22T09:20:12.937Z,65.82
2018-08-22T09:21:12.964Z,66.02
2018-08-22T09:22:12.885Z,66.79
2018-08-22T09:23:12.896Z,66.60
2018-08-22T09:24:12.808Z,63.81
2018-08-22T09:25:12.729Z,62.35
2018-08-22T09:26:12.686Z,61.68
2018-08-22T09:27:12.650Z,61.90
2018-08-22T09:28:12.694Z,61.15
2018-08-22T09:29:12.608Z,61.05
2018-08-22T09:30:12.524Z,60.86
2018-08-22T09:31:12.483Z,59.50
2018-08-22T09:32:12.440Z,60.28
2018-08-22T09:33:12.396Z,59.59
2018-08-22T09:34:12.381Z,61.64
2018-08-22T09:35:12.311Z,61.44
2018-08-22T09:36:12.272Z,62.41
2018-08-22T09:37:12.232Z,61.05
2018-08-22T09:38:12.204Z,62.71
2018-08-22T09:39:12.174Z,63.94
2018-08-22T09:40:12.198Z,62.68
2018-08-22T09:41:12.064Z,61.32
2018-08-22T09:42:12.031Z,63.65
2018-08-22T09:43:12.009Z,63.26
2018-08-22T09:44:11.972Z,62.38
2018-08-22T09:45:11.902Z,62.10
2018-08-22T09:46:11.864Z,62.38
2018-08-22T09:47:11.836Z,60.15
2018-08-22T09:48:11.802Z,60.64
2018-08-22T09:49:11.770Z,60.44
2018-08-22T09:50:11.710Z,58.82
2018-08-22T09:51:11.660Z,56.77
2018-08-22T09:52:11.615Z,56.10
2018-08-22T09:53:11.582Z,56.90
2018-08-22T09:54:11.562Z,61.08
2018-08-22T09:55:11.496Z,57.26
2018-08-22T09:56:11.458Z,56.20
2018-08-22T09:57:11.417Z,57.95
2018-08-22T09:58:11.410Z,60.60
2018-08-22T09:59:11.358Z,60.21
2018-08-22T10:00:11.345Z,55.74
2018-08-22T10:01:11.253Z,53.30
2018-08-22T10:02:11.225Z,53.42
2018-08-22T10:03:11.166Z,54.08
2018-08-22T10:04:11.154Z,55.05
2018-08-22T10:05:11.090Z,56.71
2018-08-22T10:06:11.048Z,55.54
2018-08-22T10:07:11.056Z,59.23
2018-08-22T10:08:10.968Z,55.86
2018-08-22T10:09:10.957Z,54.79
2018-08-22T10:10:10.883Z,53.72
2018-08-22T10:11:10.848Z,54.89
2018-08-22T10:12:10.820Z,54.11
2018-08-22T10:13:10.766Z,51.29
2018-08-22T10:14:10.750Z,50.92
2018-08-22T10:15:10.685Z,52.94
2018-08-22T10:16:10.641Z,52.84
2018-08-22T10:17:10.637Z,54.08
2018-08-22T10:18:10.582Z,54.47
2018-08-22T10:19:10.631Z,56.32
2018-08-22T10:20:10.487Z,56.12
2018-08-22T10:21:10.443Z,53.72
2018-08-22T10:22:10.400Z,53.99
2018-08-22T10:23:10.357Z,54.99
2018-08-22T10:24:10.333Z,54.50
2018-08-22T10:25:10.301Z,54.30
2018-08-22T10:26:10.239Z,55.86
2018-08-22T10:27:10.211Z,54.01
2018-08-22T10:28:10.165Z,54.91
2018-08-22T10:29:10.118Z,54.01
2018-08-22T10:30:10.097Z,54.21
2018-08-22T10:31:10.032Z,52.16
2018-08-22T10:32:09.995Z,55.86
2018-08-22T10:33:09.953Z,52.45
2018-08-22T10:34:09.915Z,51.87
2018-08-22T10:35:09.917Z,51.29
2018-08-22T10:36:09.838Z,52.58
2018-08-22T10:37:09.796Z,53.23
2018-08-22T10:38:09.755Z,52.06
2018-08-22T10:39:09.714Z,53.62
2018-08-22T10:40:09.718Z,54.01
2018-08-22T10:41:09.631Z,55.08
2018-08-22T10:42:09.593Z,54.60
2018-08-22T10:43:09.551Z,54.30
2018-08-22T10:44:09.517Z,54.40
2018-08-22T10:45:09.498Z,54.11
2018-08-22T10:46:09.455Z,53.75
2018-08-22T10:47:09.394Z,53.26
2018-08-22T10:48:09.355Z,54.62
2018-08-22T10:49:09.305Z,53.81
2018-08-22T10:50:09.290Z,53.23
2018-08-22T10:51:09.241Z,53.33
2018-08-22T10:52:09.188Z,53.26
2018-08-22T10:53:09.149Z,53.36
2018-08-22T10:54:09.128Z,53.16
2018-08-22T10:55:09.097Z,52.09
2018-08-22T10:56:09.031Z,51.73
2018-08-22T10:57:08.991Z,51.43
2018-08-22T10:58:08.947Z,50.95
2018-08-22T10:59:08.909Z,50.16
2018-08-22T11:00:08.898Z,50.97
2018-08-22T11:01:08.828Z,52.34
2018-08-22T11:02:08.792Z,51.07
2018-08-22T11:03:08.769Z,51.36
2018-08-22T11:04:08.711Z,50.16
2018-08-22T11:05:08.688Z,51.14
2018-08-22T11:06:08.628Z,52.50
2018-08-22T11:07:08.602Z,52.22
2018-08-22T11:08:08.550Z,50.75
2018-08-22T11:09:08.527Z,51.90
2018-08-22T11:10:08.488Z,52.22
2018-08-22T11:11:08.447Z,54.55
2018-08-22T11:12:08.393Z,54.26
2018-08-22T11:13:08.346Z,53.36
2018-08-22T11:14:08.315Z,51.41
2018-08-22T11:15:08.289Z,50.92
2018-08-22T11:16:08.269Z,51.12
2018-08-22T11:17:08.192Z,53.19
2018-08-22T11:18:08.238Z,53.97
2018-08-22T11:19:08.111Z,53.28
2018-08-22T11:20:08.101Z,53.09
2018-08-22T11:21:08.025Z,52.50
2018-08-22T11:22:07.986Z,51.92
2018-08-22T11:23:07.950Z,52.40
2018-08-22T11:24:07.911Z,50.56
2018-08-22T11:25:07.904Z,50.26
2018-08-22T11:26:07.888Z,51.34
2018-08-22T11:27:07.862Z,52.40
2018-08-22T11:28:07.746Z,50.95
2018-08-22T11:29:07.703Z,52.50
2018-08-22T11:30:07.668Z,53.97
2018-08-22T11:31:07.772Z,56.01
2018-08-22T11:32:07.584Z,54.16
2018-08-22T11:33:07.552Z,53.19
2018-08-22T11:34:07.506Z,52.80
2018-08-22T11:35:07.467Z,52.77
2018-08-22T11:36:07.453Z,50.73
2018-08-22T11:37:07.389Z,51.90
2018-08-22T11:38:07.346Z,54.13
2018-08-22T11:39:07.318Z,54.03
2018-08-22T11:40:07.267Z,55.79
2018-08-22T11:41:07.251Z,57.64
2018-08-22T11:42:07.183Z,53.38
2018-08-22T11:43:07.143Z,52.99
2018-08-22T11:44:07.105Z,52.31
2018-08-22T11:45:07.060Z,53.28
2018-08-22T11:46:07.044Z,53.48
2018-08-22T11:47:06.980Z,53.36
2018-08-22T11:48:06.943Z,53.97
2018-08-22T11:49:06.902Z,53.97
2018-08-22T11:50:06.864Z,54.46
2018-08-22T11:51:06.847Z,54.85
2018-08-22T11:52:06.780Z,53.87
2018-08-22T11:53:06.740Z,54.36
2018-08-22T11:54:06.703Z,53.19
2018-08-22T11:55:06.663Z,53.09
2018-08-22T11:56:06.677Z,53.87
2018-08-22T11:57:06.579Z,52.60
2018-08-22T11:58:06.535Z,54.65
2018-08-22T11:59:06.500Z,53.89
2018-08-22T12:00:06.459Z,53.31
2018-08-22T12:01:06.438Z,52.04
2018-08-22T12:02:06.388Z,53.70
2018-08-22T12:03:06.337Z,53.70
2018-08-22T12:04:06.298Z,54.19
2018-08-22T12:05:06.257Z,52.73
2018-08-22T12:06:06.237Z,51.95
2018-08-22T12:07:06.182Z,51.36
2018-08-22T12:08:06.132Z,52.04
2018-08-22T12:09:06.094Z,53.70
2018-08-22T12:10:06.063Z,54.87
2018-08-22T12:11:06.038Z,53.99
2018-08-22T12:12:05.975Z,52.92
2018-08-22T12:13:05.936Z,52.75
2018-08-22T12:14:05.897Z,52.85
2018-08-22T12:15:05.854Z,53.83
2018-08-22T12:16:05.876Z,53.73
2018-08-22T12:17:05.772Z,51.87
2018-08-22T12:18:05.733Z,52.75
2018-08-22T12:19:05.694Z,53.53
2018-08-22T12:20:05.657Z,53.73
2018-08-22T12:21:05.639Z,52.85
2018-08-22T12:22:05.577Z,52.26
2018-08-22T12:23:05.604Z,52.07
2018-08-22T12:24:05.499Z,51.58
2018-08-22T12:25:05.454Z,53.14
2018-08-22T12:26:05.413Z,50.90
2018-08-22T12:27:05.422Z,50.51
2018-08-22T12:28:05.330Z,53.05
2018-08-22T12:29:05.297Z,52.66
2018-08-22T12:30:05.255Z,52.66
2018-08-22T12:31:05.285Z,52.83
2018-08-22T12:32:05.205Z,52.14
2018-08-22T12:33:05.134Z,51.46
2018-08-22T12:34:05.092Z,52.04
2018-08-22T12:35:05.058Z,52.63
2018-08-22T12:36:05.019Z,52.24
2018-08-22T12:37:05.016Z,51.95
2018-08-22T12:38:04.935Z,53.60
2018-08-22T12:39:04.894Z,53.02
2018-08-22T12:40:04.858Z,53.50
2018-08-22T12:41:04.816Z,52.34
2018-08-22T12:42:04.800Z,53.99
2018-08-22T12:43:04.734Z,53.60
2018-08-22T12:44:04.695Z,53.41
2018-08-22T12:45:04.655Z,52.14
2018-08-22T12:46:04.621Z,53.50
2018-08-22T12:47:04.608Z,52.24
2018-08-22T12:48:04.535Z,51.56
2018-08-22T12:49:04.495Z,51.85
2018-08-22T12:50:04.461Z,51.56
2018-08-22T12:51:04.416Z,54.09
2018-08-22T12:52:04.421Z,52.34